sensor_id;sensor_type;location;lat;lon;timestamp;P1;durP1;ratioP1;P2;durP2;ratioP2
61373;SDS011;47242;48.158;-1.586;2022-12-26T00:00:52;6.78;;;2.47;;
61373;SDS011;47242;48.158;-1.586;2022-12-26T00:03:27;4.45;;;2.25;;
61373;SDS011;47242;48.158;-1.586;2022-12-26T00:05:54;5.72;;;2.45;;
61373;SDS011;47242;48.158;-1.586;2022-12-26T00:08:20;5.57;;;2.35;;
61373;SDS011;47242;48.158;-1.586;2022-12-26T00:10:45;5.20;;;1.75;;
61373;SDS011;47242;48.158;-1.586;2022-12-26T00:13:11;4.75;;;2.13;;
61373;SDS011;47242;48.158;-1.586;2022-12-26T00:15:40;5.57;;;1.98;;
61373;SDS011;47242;48.158;-1.586;2022-12-26T00:18:06;5.40;;;1.77;;
61373;SDS011;47242;48.158;-1.586;2022-12-26T00:20:32;5.43;;;2.05;;
61373;SDS011;47242;48.158;-1.586;2022-12-26T00:22:58;5.15;;;1.90;;
61373;SDS011;47242;48.158;-1.586;2022-12-26T00:25:24;3.17;;;1.90;;
61373;SDS011;47242;48.158;-1.586;2022-12-26T00:27:50;2.67;;;1.80;;
61373;SDS011;47242;48.158;-1.586;2022-12-26T00:30:16;8.23;;;2.10;;
61373;SDS011;47242;48.158;-1.586;2022-12-26T00:32:42;3.53;;;1.90;;
61373;SDS011;47242;48.158;-1.586;2022-12-26T00:35:07;3.80;;;1.90;;
61373;SDS011;47242;48.158;-1.586;2022-12-26T00:37:33;2.05;;;1.80;;
61373;SDS011;47242;48.158;-1.586;2022-12-26T00:39:59;4.35;;;1.80;;
61373;SDS011;47242;48.158;-1.586;2022-12-26T00:42:25;5.63;;;2.50;;
61373;SDS011;47242;48.158;-1.586;2022-12-26T00:44:50;5.38;;;2.10;;
61373;SDS011;47242;48.158;-1.586;2022-12-26T00:47:16;3.78;;;1.80;;
61373;SDS011;47242;48.158;-1.586;2022-12-26T00:49:41;3.63;;;2.25;;
61373;SDS011;47242;48.158;-1.586;2022-12-26T00:52:07;8.50;;;2.50;;
61373;SDS011;47242;48.158;-1.586;2022-12-26T00:54:33;9.35;;;2.33;;
61373;SDS011;47242;48.158;-1.586;2022-12-26T00:56:58;3.17;;;2.00;;
61373;SDS011;47242;48.158;-1.586;2022-12-26T00:59:24;4.90;;;2.40;;
61373;SDS011;47242;48.158;-1.586;2022-12-26T01:01:50;6.70;;;2.25;;
61373;SDS011;47242;48.158;-1.586;2022-12-26T01:04:16;5.57;;;2.17;;
61373;SDS011;47242;48.158;-1.586;2022-12-26T01:06:41;6.82;;;2.20;;
61373;SDS011;47242;48.158;-1.586;2022-12-26T01:09:09;3.95;;;1.70;;
61373;SDS011;47242;48.158;-1.586;2022-12-26T01:11:39;7.07;;;1.98;;
61373;SDS011;47242;48.158;-1.586;2022-12-26T01:16:38;5.22;;;2.50;;
61373;SDS011;47242;48.158;-1.586;2022-12-26T01:19:05;6.28;;;2.45;;
61373;SDS011;47242;48.158;-1.586;2022-12-26T01:21:31;6.32;;;1.90;;
61373;SDS011;47242;48.158;-1.586;2022-12-26T01:23:57;6.15;;;1.73;;
61373;SDS011;47242;48.158;-1.586;2022-12-26T01:26:23;6.38;;;2.17;;
61373;SDS011;47242;48.158;-1.586;2022-12-26T01:28:48;6.03;;;2.45;;
61373;SDS011;47242;48.158;-1.586;2022-12-26T01:31:15;3.72;;;2.10;;
61373;SDS011;47242;48.158;-1.586;2022-12-26T01:33:42;8.43;;;2.08;;
61373;SDS011;47242;48.158;-1.586;2022-12-26T01:36:07;4.72;;;1.67;;
61373;SDS011;47242;48.158;-1.586;2022-12-26T01:38:33;14.52;;;2.47;;
61373;SDS011;47242;48.158;-1.586;2022-12-26T01:40:59;4.80;;;2.42;;
61373;SDS011;47242;48.158;-1.586;2022-12-26T01:44:00;7.25;;;2.00;;
61373;SDS011;47242;48.158;-1.586;2022-12-26T01:47:00;7.00;;;2.03;;
61373;SDS011;47242;48.158;-1.586;2022-12-26T01:49:40;8.13;;;2.35;;
61373;SDS011;47242;48.158;-1.586;2022-12-26T01:52:23;6.68;;;1.70;;
61373;SDS011;47242;48.158;-1.586;2022-12-26T01:55:02;9.30;;;2.17;;
61373;SDS011;47242;48.158;-1.586;2022-12-26T01:57:36;9.35;;;2.15;;
61373;SDS011;47242;48.158;-1.586;2022-12-26T02:00:06;6.28;;;2.83;;
61373;SDS011;47242;48.158;-1.586;2022-12-26T02:02:32;4.20;;;1.27;;
61373;SDS011;47242;48.158;-1.586;2022-12-26T02:05:18;5.38;;;1.75;;
61373;SDS011;47242;48.158;-1.586;2022-12-26T02:10:38;4.03;;;1.58;;
61373;SDS011;47242;48.158;-1.586;2022-12-26T02:13:17;4.50;;;1.90;;
61373;SDS011;47242;48.158;-1.586;2022-12-26T02:15:43;5.07;;;1.60;;
61373;SDS011;47242;48.158;-1.586;2022-12-26T02:18:10;4.53;;;1.40;;
61373;SDS011;47242;48.158;-1.586;2022-12-26T02:20:40;3.35;;;1.73;;
61373;SDS011;47242;48.158;-1.586;2022-12-26T02:23:29;7.00;;;1.90;;
61373;SDS011;47242;48.158;-1.586;2022-12-26T02:31:37;4.60;;;1.48;;
61373;SDS011;47242;48.158;-1.586;2022-12-26T02:34:12;5.70;;;1.70;;
61373;SDS011;47242;48.158;-1.586;2022-12-26T02:45:03;2.55;;;1.52;;
61373;SDS011;47242;48.158;-1.586;2022-12-26T02:50:30;6.85;;;1.63;;
61373;SDS011;47242;48.158;-1.586;2022-12-26T02:53:46;5.25;;;1.92;;
61373;SDS011;47242;48.158;-1.586;2022-12-26T02:56:43;7.30;;;1.42;;
61373;SDS011;47242;48.158;-1.586;2022-12-26T03:02:40;5.63;;;2.38;;
61373;SDS011;47242;48.158;-1.586;2022-12-26T03:05:37;4.20;;;1.60;;
61373;SDS011;47242;48.158;-1.586;2022-12-26T03:08:49;5.00;;;1.30;;
61373;SDS011;47242;48.158;-1.586;2022-12-26T03:11:43;7.35;;;1.58;;
61373;SDS011;47242;48.158;-1.586;2022-12-26T03:14:34;6.10;;;1.50;;
61373;SDS011;47242;48.158;-1.586;2022-12-26T03:17:11;5.35;;;1.33;;
61373;SDS011;47242;48.158;-1.586;2022-12-26T03:25:04;7.75;;;2.10;;
61373;SDS011;47242;48.158;-1.586;2022-12-26T03:27:52;4.85;;;1.30;;
61373;SDS011;47242;48.158;-1.586;2022-12-26T03:30:19;5.25;;;1.42;;
61373;SDS011;47242;48.158;-1.586;2022-12-26T03:33:03;2.80;;;1.33;;
61373;SDS011;47242;48.158;-1.586;2022-12-26T03:35:30;4.90;;;1.77;;
61373;SDS011;47242;48.158;-1.586;2022-12-26T03:37:59;3.92;;;1.42;;
61373;SDS011;47242;48.158;-1.586;2022-12-26T03:40:38;4.78;;;1.33;;
61373;SDS011;47242;48.158;-1.586;2022-12-26T03:46:46;3.15;;;1.35;;
61373;SDS011;47242;48.158;-1.586;2022-12-26T03:49:35;5.97;;;1.70;;
61373;SDS011;47242;48.158;-1.586;2022-12-26T03:52:34;6.20;;;1.63;;
61373;SDS011;47242;48.158;-1.586;2022-12-26T03:55:27;7.10;;;1.45;;
61373;SDS011;47242;48.158;-1.586;2022-12-26T03:59:04;8.25;;;1.70;;
61373;SDS011;47242;48.158;-1.586;2022-12-26T04:01:36;4.90;;;1.65;;
61373;SDS011;47242;48.158;-1.586;2022-12-26T04:04:22;7.18;;;1.40;;
61373;SDS011;47242;48.158;-1.586;2022-12-26T04:07:10;5.07;;;1.65;;
61373;SDS011;47242;48.158;-1.586;2022-12-26T04:10:18;4.20;;;1.33;;
61373;SDS011;47242;48.158;-1.586;2022-12-26T04:13:10;11.20;;;1.88;;
61373;SDS011;47242;48.158;-1.586;2022-12-26T04:16:02;6.78;;;1.60;;
61373;SDS011;47242;48.158;-1.586;2022-12-26T04:22:16;2.00;;;1.20;;
61373;SDS011;47242;48.158;-1.586;2022-12-26T04:27:54;3.30;;;1.40;;
61373;SDS011;47242;48.158;-1.586;2022-12-26T04:30:39;4.93;;;1.65;;
61373;SDS011;47242;48.158;-1.586;2022-12-26T04:33:30;6.18;;;1.60;;
61373;SDS011;47242;48.158;-1.586;2022-12-26T04:36:24;6.13;;;1.80;;
61373;SDS011;47242;48.158;-1.586;2022-12-26T04:39:16;5.57;;;1.67;;
61373;SDS011;47242;48.158;-1.586;2022-12-26T04:42:04;5.38;;;1.42;;
61373;SDS011;47242;48.158;-1.586;2022-12-26T04:44:50;4.28;;;1.50;;
61373;SDS011;47242;48.158;-1.586;2022-12-26T04:47:17;5.30;;;1.30;;
61373;SDS011;47242;48.158;-1.586;2022-12-26T04:49:43;8.65;;;1.83;;
61373;SDS011;47242;48.158;-1.586;2022-12-26T04:52:27;6.10;;;1.65;;
61373;SDS011;47242;48.158;-1.586;2022-12-26T04:55:14;4.97;;;1.48;;
61373;SDS011;47242;48.158;-1.586;2022-12-26T04:57:40;6.22;;;1.60;;
61373;SDS011;47242;48.158;-1.586;2022-12-26T05:00:06;2.75;;;1.40;;
61373;SDS011;47242;48.158;-1.586;2022-12-26T05:02:32;1.30;;;1.20;;
61373;SDS011;47242;48.158;-1.586;2022-12-26T05:05:24;3.83;;;1.40;;
61373;SDS011;47242;48.158;-1.586;2022-12-26T05:08:17;4.18;;;1.50;;
61373;SDS011;47242;48.158;-1.586;2022-12-26T05:11:09;3.75;;;1.20;;
61373;SDS011;47242;48.158;-1.586;2022-12-26T05:13:35;9.68;;;1.85;;
61373;SDS011;47242;48.158;-1.586;2022-12-26T05:16:00;4.28;;;1.75;;
61373;SDS011;47242;48.158;-1.586;2022-12-26T05:18:45;7.15;;;1.90;;
61373;SDS011;47242;48.158;-1.586;2022-12-26T05:21:29;3.90;;;1.60;;
61373;SDS011;47242;48.158;-1.586;2022-12-26T05:24:13;5.95;;;1.85;;
61373;SDS011;47242;48.158;-1.586;2022-12-26T05:26:57;7.03;;;2.00;;
61373;SDS011;47242;48.158;-1.586;2022-12-26T05:29:42;5.55;;;1.85;;
61373;SDS011;47242;48.158;-1.586;2022-12-26T05:32:08;4.22;;;1.55;;
61373;SDS011;47242;48.158;-1.586;2022-12-26T05:34:33;4.10;;;1.60;;
61373;SDS011;47242;48.158;-1.586;2022-12-26T05:36:59;4.80;;;1.33;;
61373;SDS011;47242;48.158;-1.586;2022-12-26T05:39:25;3.42;;;1.30;;
61373;SDS011;47242;48.158;-1.586;2022-12-26T05:41:50;2.22;;;1.10;;
61373;SDS011;47242;48.158;-1.586;2022-12-26T05:44:16;6.78;;;1.58;;
61373;SDS011;47242;48.158;-1.586;2022-12-26T05:46:42;2.65;;;1.40;;
61373;SDS011;47242;48.158;-1.586;2022-12-26T05:49:08;3.72;;;1.10;;
61373;SDS011;47242;48.158;-1.586;2022-12-26T05:51:34;5.95;;;1.15;;
61373;SDS011;47242;48.158;-1.586;2022-12-26T05:54:00;9.15;;;1.13;;
61373;SDS011;47242;48.158;-1.586;2022-12-26T05:56:26;3.20;;;1.50;;
61373;SDS011;47242;48.158;-1.586;2022-12-26T05:58:56;5.35;;;1.38;;
61373;SDS011;47242;48.158;-1.586;2022-12-26T06:01:23;4.20;;;1.25;;
61373;SDS011;47242;48.158;-1.586;2022-12-26T06:03:52;8.27;;;1.20;;
61373;SDS011;47242;48.158;-1.586;2022-12-26T06:06:19;4.82;;;1.15;;
61373;SDS011;47242;48.158;-1.586;2022-12-26T06:08:49;4.32;;;1.60;;
61373;SDS011;47242;48.158;-1.586;2022-12-26T06:11:17;7.47;;;1.48;;
61373;SDS011;47242;48.158;-1.586;2022-12-26T06:13:43;9.60;;;1.35;;
61373;SDS011;47242;48.158;-1.586;2022-12-26T06:16:10;7.25;;;1.08;;
61373;SDS011;47242;48.158;-1.586;2022-12-26T06:18:38;3.75;;;1.40;;
61373;SDS011;47242;48.158;-1.586;2022-12-26T06:21:05;9.48;;;1.13;;
61373;SDS011;47242;48.158;-1.586;2022-12-26T06:23:33;8.00;;;1.95;;
61373;SDS011;47242;48.158;-1.586;2022-12-26T06:25:59;4.40;;;1.33;;
61373;SDS011;47242;48.158;-1.586;2022-12-26T06:28:27;4.95;;;1.10;;
61373;SDS011;47242;48.158;-1.586;2022-12-26T06:30:53;3.00;;;1.10;;
61373;SDS011;47242;48.158;-1.586;2022-12-26T06:33:19;1.98;;;1.10;;
61373;SDS011;47242;48.158;-1.586;2022-12-26T06:35:45;5.38;;;1.17;;
61373;SDS011;47242;48.158;-1.586;2022-12-26T06:38:11;2.88;;;1.00;;
61373;SDS011;47242;48.158;-1.586;2022-12-26T06:40:37;3.05;;;1.10;;
61373;SDS011;47242;48.158;-1.586;2022-12-26T06:43:04;2.58;;;1.05;;
61373;SDS011;47242;48.158;-1.586;2022-12-26T06:45:33;3.45;;;1.02;;
61373;SDS011;47242;48.158;-1.586;2022-12-26T06:47:59;1.80;;;0.90;;
61373;SDS011;47242;48.158;-1.586;2022-12-26T06:50:25;2.67;;;1.40;;
61373;SDS011;47242;48.158;-1.586;2022-12-26T06:52:50;7.07;;;1.25;;
61373;SDS011;47242;48.158;-1.586;2022-12-26T06:55:16;4.05;;;1.17;;
61373;SDS011;47242;48.158;-1.586;2022-12-26T06:57:42;7.35;;;1.15;;
61373;SDS011;47242;48.158;-1.586;2022-12-26T07:00:08;4.72;;;0.95;;
61373;SDS011;47242;48.158;-1.586;2022-12-26T07:02:34;3.50;;;1.20;;
61373;SDS011;47242;48.158;-1.586;2022-12-26T07:05:02;5.78;;;1.33;;
61373;SDS011;47242;48.158;-1.586;2022-12-26T07:07:28;6.50;;;1.38;;
61373;SDS011;47242;48.158;-1.586;2022-12-26T07:09:53;8.55;;;2.03;;
61373;SDS011;47242;48.158;-1.586;2022-12-26T07:12:20;5.38;;;1.85;;
61373;SDS011;47242;48.158;-1.586;2022-12-26T07:14:46;9.70;;;2.05;;
61373;SDS011;47242;48.158;-1.586;2022-12-26T07:17:12;5.53;;;1.67;;
61373;SDS011;47242;48.158;-1.586;2022-12-26T07:19:38;7.85;;;2.00;;
61373;SDS011;47242;48.158;-1.586;2022-12-26T07:22:06;4.45;;;2.05;;
61373;SDS011;47242;48.158;-1.586;2022-12-26T07:24:31;10.32;;;1.90;;
61373;SDS011;47242;48.158;-1.586;2022-12-26T07:26:57;4.97;;;1.70;;
61373;SDS011;47242;48.158;-1.586;2022-12-26T07:29:22;7.30;;;2.10;;
61373;SDS011;47242;48.158;-1.586;2022-12-26T07:31:48;6.32;;;2.15;;
61373;SDS011;47242;48.158;-1.586;2022-12-26T07:34:14;5.70;;;1.60;;
61373;SDS011;47242;48.158;-1.586;2022-12-26T07:36:42;4.43;;;1.50;;
61373;SDS011;47242;48.158;-1.586;2022-12-26T07:39:07;8.43;;;1.75;;
61373;SDS011;47242;48.158;-1.586;2022-12-26T07:41:33;5.22;;;1.30;;
61373;SDS011;47242;48.158;-1.586;2022-12-26T07:44:17;4.22;;;1.20;;
61373;SDS011;47242;48.158;-1.586;2022-12-26T07:46:43;7.60;;;1.42;;
61373;SDS011;47242;48.158;-1.586;2022-12-26T07:49:10;8.20;;;1.10;;
61373;SDS011;47242;48.158;-1.586;2022-12-26T07:51:36;4.63;;;1.30;;
61373;SDS011;47242;48.158;-1.586;2022-12-26T07:54:02;7.88;;;1.50;;
61373;SDS011;47242;48.158;-1.586;2022-12-26T07:56:30;4.63;;;1.20;;
61373;SDS011;47242;48.158;-1.586;2022-12-26T07:58:56;5.90;;;1.55;;
61373;SDS011;47242;48.158;-1.586;2022-12-26T08:01:31;5.20;;;1.67;;
61373;SDS011;47242;48.158;-1.586;2022-12-26T08:03:57;5.97;;;1.35;;
61373;SDS011;47242;48.158;-1.586;2022-12-26T08:06:22;5.88;;;1.38;;
61373;SDS011;47242;48.158;-1.586;2022-12-26T08:08:49;15.30;;;2.33;;
61373;SDS011;47242;48.158;-1.586;2022-12-26T08:11:16;7.07;;;1.27;;
61373;SDS011;47242;48.158;-1.586;2022-12-26T08:13:44;6.47;;;1.60;;
61373;SDS011;47242;48.158;-1.586;2022-12-26T08:16:11;1.42;;;0.82;;
61373;SDS011;47242;48.158;-1.586;2022-12-26T08:18:38;2.88;;;0.77;;
61373;SDS011;47242;48.158;-1.586;2022-12-26T08:21:04;6.00;;;1.55;;
61373;SDS011;47242;48.158;-1.586;2022-12-26T08:23:30;6.90;;;1.20;;
61373;SDS011;47242;48.158;-1.586;2022-12-26T08:25:56;5.35;;;1.08;;
61373;SDS011;47242;48.158;-1.586;2022-12-26T08:28:21;4.78;;;1.00;;
61373;SDS011;47242;48.158;-1.586;2022-12-26T08:30:47;7.88;;;1.33;;
61373;SDS011;47242;48.158;-1.586;2022-12-26T08:33:14;4.43;;;1.08;;
61373;SDS011;47242;48.158;-1.586;2022-12-26T08:35:40;5.53;;;1.33;;
61373;SDS011;47242;48.158;-1.586;2022-12-26T08:38:06;6.85;;;1.90;;
61373;SDS011;47242;48.158;-1.586;2022-12-26T08:40:31;3.95;;;1.30;;
61373;SDS011;47242;48.158;-1.586;2022-12-26T08:42:57;4.05;;;1.13;;
61373;SDS011;47242;48.158;-1.586;2022-12-26T08:45:23;4.15;;;1.50;;
61373;SDS011;47242;48.158;-1.586;2022-12-26T08:47:49;4.60;;;1.10;;
61373;SDS011;47242;48.158;-1.586;2022-12-26T08:50:15;6.07;;;1.20;;
61373;SDS011;47242;48.158;-1.586;2022-12-26T08:52:41;5.40;;;1.35;;
61373;SDS011;47242;48.158;-1.586;2022-12-26T08:55:08;4.30;;;1.20;;
61373;SDS011;47242;48.158;-1.586;2022-12-26T08:57:34;8.20;;;1.42;;
61373;SDS011;47242;48.158;-1.586;2022-12-26T08:59:59;2.08;;;0.90;;
61373;SDS011;47242;48.158;-1.586;2022-12-26T09:02:25;3.70;;;1.10;;
61373;SDS011;47242;48.158;-1.586;2022-12-26T09:04:51;3.38;;;1.40;;
61373;SDS011;47242;48.158;-1.586;2022-12-26T09:07:17;3.75;;;1.30;;
61373;SDS011;47242;48.158;-1.586;2022-12-26T09:09:42;2.80;;;1.10;;
61373;SDS011;47242;48.158;-1.586;2022-12-26T09:12:09;5.45;;;1.08;;
61373;SDS011;47242;48.158;-1.586;2022-12-26T09:14:34;2.55;;;1.55;;
61373;SDS011;47242;48.158;-1.586;2022-12-26T09:17:00;9.45;;;1.73;;
61373;SDS011;47242;48.158;-1.586;2022-12-26T09:19:26;3.45;;;1.50;;
61373;SDS011;47242;48.158;-1.586;2022-12-26T09:21:56;2.22;;;1.23;;
61373;SDS011;47242;48.158;-1.586;2022-12-26T09:24:41;6.85;;;1.73;;
61373;SDS011;47242;48.158;-1.586;2022-12-26T09:27:06;9.25;;;1.75;;
61373;SDS011;47242;48.158;-1.586;2022-12-26T09:29:32;6.60;;;1.80;;
61373;SDS011;47242;48.158;-1.586;2022-12-26T09:31:58;11.23;;;1.45;;
61373;SDS011;47242;48.158;-1.586;2022-12-26T09:34:24;6.38;;;1.67;;
61373;SDS011;47242;48.158;-1.586;2022-12-26T09:36:49;7.47;;;1.40;;
61373;SDS011;47242;48.158;-1.586;2022-12-26T09:39:15;1.40;;;1.23;;
61373;SDS011;47242;48.158;-1.586;2022-12-26T09:44:32;2.03;;;1.35;;
61373;SDS011;47242;48.158;-1.586;2022-12-26T09:52:48;5.00;;;1.83;;
61373;SDS011;47242;48.158;-1.586;2022-12-26T09:57:45;3.10;;;1.20;;
61373;SDS011;47242;48.158;-1.586;2022-12-26T10:02:48;10.70;;;1.33;;
61373;SDS011;47242;48.158;-1.586;2022-12-26T10:05:17;5.53;;;1.50;;
61373;SDS011;47242;48.158;-1.586;2022-12-26T10:08:00;7.88;;;1.50;;
61373;SDS011;47242;48.158;-1.586;2022-12-26T10:10:39;3.65;;;1.20;;
61373;SDS011;47242;48.158;-1.586;2022-12-26T10:15:54;6.47;;;1.35;;
61373;SDS011;47242;48.158;-1.586;2022-12-26T10:21:15;4.15;;;1.23;;
61373;SDS011;47242;48.158;-1.586;2022-12-26T10:23:59;7.90;;;1.50;;
61373;SDS011;47242;48.158;-1.586;2022-12-26T10:26:36;5.05;;;1.70;;
61373;SDS011;47242;48.158;-1.586;2022-12-26T10:31:56;6.65;;;1.67;;
61373;SDS011;47242;48.158;-1.586;2022-12-26T10:39:32;8.85;;;2.13;;
61373;SDS011;47242;48.158;-1.586;2022-12-26T10:42:07;6.63;;;1.58;;
61373;SDS011;47242;48.158;-1.586;2022-12-26T10:44:48;6.13;;;1.83;;
61373;SDS011;47242;48.158;-1.586;2022-12-26T10:47:18;8.25;;;1.58;;
61373;SDS011;47242;48.158;-1.586;2022-12-26T10:49:48;6.93;;;1.85;;
61373;SDS011;47242;48.158;-1.586;2022-12-26T10:52:15;6.57;;;1.33;;
61373;SDS011;47242;48.158;-1.586;2022-12-26T10:54:44;4.25;;;1.40;;
61373;SDS011;47242;48.158;-1.586;2022-12-26T10:57:15;9.18;;;1.50;;
61373;SDS011;47242;48.158;-1.586;2022-12-26T10:59:43;6.60;;;1.05;;
61373;SDS011;47242;48.158;-1.586;2022-12-26T11:02:13;5.60;;;1.20;;
61373;SDS011;47242;48.158;-1.586;2022-12-26T11:04:59;6.82;;;1.85;;
61373;SDS011;47242;48.158;-1.586;2022-12-26T11:07:25;3.35;;;1.10;;
61373;SDS011;47242;48.158;-1.586;2022-12-26T11:09:54;8.38;;;1.25;;
61373;SDS011;47242;48.158;-1.586;2022-12-26T11:12:41;9.60;;;1.60;;
61373;SDS011;47242;48.158;-1.586;2022-12-26T11:17:43;5.13;;;1.55;;
61373;SDS011;47242;48.158;-1.586;2022-12-26T11:22:39;5.50;;;1.60;;
61373;SDS011;47242;48.158;-1.586;2022-12-26T11:27:40;4.28;;;1.40;;
61373;SDS011;47242;48.158;-1.586;2022-12-26T11:32:44;9.52;;;1.42;;
61373;SDS011;47242;48.158;-1.586;2022-12-26T11:35:19;1.80;;;0.88;;
61373;SDS011;47242;48.158;-1.586;2022-12-26T11:37:49;8.50;;;1.30;;
61373;SDS011;47242;48.158;-1.586;2022-12-26T11:40:22;6.30;;;1.50;;
61373;SDS011;47242;48.158;-1.586;2022-12-26T11:42:55;6.03;;;1.70;;
61373;SDS011;47242;48.158;-1.586;2022-12-26T11:45:24;4.55;;;1.10;;
61373;SDS011;47242;48.158;-1.586;2022-12-26T11:47:52;5.30;;;1.25;;
61373;SDS011;47242;48.158;-1.586;2022-12-26T11:50:20;3.13;;;1.05;;
61373;SDS011;47242;48.158;-1.586;2022-12-26T11:52:50;3.97;;;1.30;;
61373;SDS011;47242;48.158;-1.586;2022-12-26T12:00:40;3.95;;;1.10;;
61373;SDS011;47242;48.158;-1.586;2022-12-26T12:06:25;5.72;;;1.00;;
61373;SDS011;47242;48.158;-1.586;2022-12-26T12:09:36;4.10;;;1.10;;
61373;SDS011;47242;48.158;-1.586;2022-12-26T12:12:21;3.05;;;1.13;;
61373;SDS011;47242;48.158;-1.586;2022-12-26T12:26:24;2.33;;;1.00;;
61373;SDS011;47242;48.158;-1.586;2022-12-26T12:29:11;8.07;;;1.30;;
61373;SDS011;47242;48.158;-1.586;2022-12-26T12:32:09;5.95;;;1.10;;
61373;SDS011;47242;48.158;-1.586;2022-12-26T12:40:04;6.28;;;2.05;;
61373;SDS011;47242;48.158;-1.586;2022-12-26T12:42:47;5.35;;;1.52;;
61373;SDS011;47242;48.158;-1.586;2022-12-26T12:45:21;4.20;;;1.52;;
61373;SDS011;47242;48.158;-1.586;2022-12-26T12:48:06;5.65;;;1.48;;
61373;SDS011;47242;48.158;-1.586;2022-12-26T12:50:37;7.40;;;2.00;;
61373;SDS011;47242;48.158;-1.586;2022-12-26T13:00:56;7.47;;;1.60;;
61373;SDS011;47242;48.158;-1.586;2022-12-26T13:06:08;5.65;;;1.17;;
61373;SDS011;47242;48.158;-1.586;2022-12-26T13:09:11;3.45;;;1.35;;
61373;SDS011;47242;48.158;-1.586;2022-12-26T13:11:49;5.38;;;1.40;;
61373;SDS011;47242;48.158;-1.586;2022-12-26T13:14:30;5.70;;;1.63;;
61373;SDS011;47242;48.158;-1.586;2022-12-26T13:17:10;7.45;;;1.40;;
61373;SDS011;47242;48.158;-1.586;2022-12-26T13:19:43;4.78;;;1.27;;
61373;SDS011;47242;48.158;-1.586;2022-12-26T13:22:36;10.75;;;2.67;;
61373;SDS011;47242;48.158;-1.586;2022-12-26T13:25:24;4.00;;;1.60;;
61373;SDS011;47242;48.158;-1.586;2022-12-26T13:27:53;6.18;;;1.20;;
61373;SDS011;47242;48.158;-1.586;2022-12-26T13:30:33;3.08;;;1.15;;
61373;SDS011;47242;48.158;-1.586;2022-12-26T13:33:00;4.78;;;1.35;;
61373;SDS011;47242;48.158;-1.586;2022-12-26T13:38:16;4.63;;;1.58;;
61373;SDS011;47242;48.158;-1.586;2022-12-26T13:40:47;11.07;;;1.63;;
61373;SDS011;47242;48.158;-1.586;2022-12-26T13:44:04;6.97;;;1.75;;
61373;SDS011;47242;48.158;-1.586;2022-12-26T13:54:35;7.82;;;1.27;;
61373;SDS011;47242;48.158;-1.586;2022-12-26T14:00:10;7.22;;;1.30;;
61373;SDS011;47242;48.158;-1.586;2022-12-26T14:42:13;5.90;;;1.20;;
61373;SDS011;47242;48.158;-1.586;2022-12-26T14:44:58;8.75;;;1.67;;
61373;SDS011;47242;48.158;-1.586;2022-12-26T14:47:46;6.13;;;1.35;;
61373;SDS011;47242;48.158;-1.586;2022-12-26T14:54:05;7.50;;;1.88;;
61373;SDS011;47242;48.158;-1.586;2022-12-26T15:09:40;4.75;;;1.15;;
61373;SDS011;47242;48.158;-1.586;2022-12-26T15:28:38;2.30;;;1.02;;
61373;SDS011;47242;48.158;-1.586;2022-12-26T15:34:19;3.22;;;1.15;;
61373;SDS011;47242;48.158;-1.586;2022-12-26T15:37:07;3.00;;;1.13;;
61373;SDS011;47242;48.158;-1.586;2022-12-26T15:48:01;1.88;;;1.25;;
61373;SDS011;47242;48.158;-1.586;2022-12-26T16:01:51;1.77;;;1.02;;
61373;SDS011;47242;48.158;-1.586;2022-12-26T16:04:25;4.10;;;1.20;;
61373;SDS011;47242;48.158;-1.586;2022-12-26T16:07:05;3.22;;;1.00;;
61373;SDS011;47242;48.158;-1.586;2022-12-26T16:09:51;2.22;;;1.10;;
61373;SDS011;47242;48.158;-1.586;2022-12-26T16:17:36;2.85;;;1.15;;
61373;SDS011;47242;48.158;-1.586;2022-12-26T16:20:15;3.65;;;2.08;;
61373;SDS011;47242;48.158;-1.586;2022-12-26T16:23:03;6.72;;;2.17;;
61373;SDS011;47242;48.158;-1.586;2022-12-26T16:25:29;4.60;;;2.78;;
61373;SDS011;47242;48.158;-1.586;2022-12-26T16:27:56;8.55;;;3.05;;
61373;SDS011;47242;48.158;-1.586;2022-12-26T16:30:24;7.45;;;4.30;;
61373;SDS011;47242;48.158;-1.586;2022-12-26T16:32:53;4.97;;;3.35;;
61373;SDS011;47242;48.158;-1.586;2022-12-26T16:37:58;4.50;;;2.75;;
61373;SDS011;47242;48.158;-1.586;2022-12-26T16:40:29;3.28;;;2.42;;
61373;SDS011;47242;48.158;-1.586;2022-12-26T16:45:24;8.00;;;2.78;;
61373;SDS011;47242;48.158;-1.586;2022-12-26T16:47:51;5.53;;;1.85;;
61373;SDS011;47242;48.158;-1.586;2022-12-26T16:50:20;3.22;;;1.88;;
61373;SDS011;47242;48.158;-1.586;2022-12-26T16:52:48;4.93;;;2.30;;
61373;SDS011;47242;48.158;-1.586;2022-12-26T16:55:25;4.80;;;2.20;;
61373;SDS011;47242;48.158;-1.586;2022-12-26T17:01:06;6.80;;;1.83;;
61373;SDS011;47242;48.158;-1.586;2022-12-26T17:03:40;6.15;;;1.98;;
61373;SDS011;47242;48.158;-1.586;2022-12-26T17:08:48;2.78;;;1.67;;
61373;SDS011;47242;48.158;-1.586;2022-12-26T17:11:15;4.10;;;2.08;;
61373;SDS011;47242;48.158;-1.586;2022-12-26T17:13:46;9.52;;;3.13;;
61373;SDS011;47242;48.158;-1.586;2022-12-26T17:16:16;7.15;;;2.58;;
61373;SDS011;47242;48.158;-1.586;2022-12-26T17:18:44;5.10;;;1.50;;
61373;SDS011;47242;48.158;-1.586;2022-12-26T17:26:31;6.68;;;2.13;;
61373;SDS011;47242;48.158;-1.586;2022-12-26T17:29:00;7.50;;;3.55;;
61373;SDS011;47242;48.158;-1.586;2022-12-26T17:34:19;17.67;;;6.65;;
61373;SDS011;47242;48.158;-1.586;2022-12-26T17:39:20;14.27;;;8.00;;
61373;SDS011;47242;48.158;-1.586;2022-12-26T17:41:50;13.30;;;5.78;;
61373;SDS011;47242;48.158;-1.586;2022-12-26T17:44:38;13.38;;;5.80;;
61373;SDS011;47242;48.158;-1.586;2022-12-26T17:47:11;10.13;;;6.20;;
61373;SDS011;47242;48.158;-1.586;2022-12-26T17:49:38;13.25;;;5.50;;
61373;SDS011;47242;48.158;-1.586;2022-12-26T17:52:03;7.57;;;4.82;;
61373;SDS011;47242;48.158;-1.586;2022-12-26T17:54:29;8.65;;;5.18;;
61373;SDS011;47242;48.158;-1.586;2022-12-26T17:56:55;8.10;;;4.75;;
61373;SDS011;47242;48.158;-1.586;2022-12-26T17:59:20;5.95;;;4.20;;
61373;SDS011;47242;48.158;-1.586;2022-12-26T18:01:46;7.35;;;4.00;;
61373;SDS011;47242;48.158;-1.586;2022-12-26T18:04:12;4.70;;;3.17;;
61373;SDS011;47242;48.158;-1.586;2022-12-26T18:06:37;4.10;;;3.10;;
61373;SDS011;47242;48.158;-1.586;2022-12-26T18:09:04;9.13;;;3.83;;
61373;SDS011;47242;48.158;-1.586;2022-12-26T18:11:30;8.50;;;4.55;;
61373;SDS011;47242;48.158;-1.586;2022-12-26T18:13:56;4.93;;;3.67;;
61373;SDS011;47242;48.158;-1.586;2022-12-26T18:16:22;9.10;;;3.70;;
61373;SDS011;47242;48.158;-1.586;2022-12-26T18:18:52;4.78;;;3.30;;
61373;SDS011;47242;48.158;-1.586;2022-12-26T18:21:18;9.20;;;3.60;;
61373;SDS011;47242;48.158;-1.586;2022-12-26T18:23:43;4.53;;;2.90;;
61373;SDS011;47242;48.158;-1.586;2022-12-26T18:26:42;5.18;;;3.15;;
61373;SDS011;47242;48.158;-1.586;2022-12-26T18:29:01;10.13;;;3.22;;
61373;SDS011;47242;48.158;-1.586;2022-12-26T18:31:27;9.88;;;3.53;;
61373;SDS011;47242;48.158;-1.586;2022-12-26T18:33:53;14.13;;;3.35;;
61373;SDS011;47242;48.158;-1.586;2022-12-26T18:36:20;6.50;;;3.30;;
61373;SDS011;47242;48.158;-1.586;2022-12-26T18:38:50;9.18;;;3.65;;
61373;SDS011;47242;48.158;-1.586;2022-12-26T18:41:17;9.00;;;3.58;;
61373;SDS011;47242;48.158;-1.586;2022-12-26T18:43:43;7.68;;;3.55;;
61373;SDS011;47242;48.158;-1.586;2022-12-26T18:46:28;13.55;;;5.53;;
61373;SDS011;47242;48.158;-1.586;2022-12-26T18:48:54;8.25;;;4.35;;
61373;SDS011;47242;48.158;-1.586;2022-12-26T18:51:21;8.15;;;4.13;;
61373;SDS011;47242;48.158;-1.586;2022-12-26T18:53:48;10.88;;;5.18;;
61373;SDS011;47242;48.158;-1.586;2022-12-26T18:56:15;12.20;;;5.28;;
61373;SDS011;47242;48.158;-1.586;2022-12-26T18:58:45;12.32;;;4.78;;
61373;SDS011;47242;48.158;-1.586;2022-12-26T19:01:12;10.45;;;4.90;;
61373;SDS011;47242;48.158;-1.586;2022-12-26T19:03:41;7.55;;;4.40;;
61373;SDS011;47242;48.158;-1.586;2022-12-26T19:06:11;11.25;;;5.03;;
61373;SDS011;47242;48.158;-1.586;2022-12-26T19:08:43;9.57;;;5.60;;
61373;SDS011;47242;48.158;-1.586;2022-12-26T19:11:10;13.00;;;6.35;;
61373;SDS011;47242;48.158;-1.586;2022-12-26T19:16:05;11.52;;;5.22;;